• Join FlightAware (Why Join?)
  • Login
  • US Flag 
01:19PM EDT


 

Airport Tracker/Info


-or-


 

Live Flight TrackerFlight Track Log ✈ UCA596 ✈ 18-Feb-2014 ✈ KIAD - KBGM

Flight Track Log - Related Links

Times and Time Zones

All times are in EST time to prevent confusion due to time zone crossing. See the UCA596 flight status page for this flight to view local times or setup timezone preferences in your user account.

Time Position Orientation Groundspeed Altitude Reporting Facility
EST Latitude Longitude Course Direction KTS MPH feet Rate Location/Type
01:41PM 38.9667 -77.5000 322° Northwest 157 181 2,300  Level Potomac TRACON
01:42PM 39.0000 -77.5333 322° Northwest 153 176 4,300 2,040 Climbing Potomac TRACON
01:43PM 39.0333 -77.5667 322° Northwest 156 180 6,400 1,560 Climbing Potomac TRACON
01:45PM 39.1250 -77.5367 14° North 191 220 9,200 1,320 Climbing Washington Center
01:46PM 39.1750 -77.5328 North 177 204 10,500 1,260 Climbing Washington Center
01:47PM 39.2253 -77.5233 North 182 209 11,700 1,200 Climbing Washington Center
01:48PM 39.2775 -77.5167 North 182 209 12,900 1,200 Climbing Washington Center
01:49PM 39.3317 -77.5072 North 182 209 14,200 1,380 Climbing Washington Center
01:50PM 39.3861 -77.4981 North 187 215 15,700 1,320 Climbing Washington Center
01:52PM 39.5078 -77.4797 North 203 234 18,500 1,020 Climbing New York Center
01:53PM 39.5686 -77.4719 North 203 234 19,000 240 Climbing New York Center
01:54PM 39.6342 -77.4539 12° North 222 255 19,000  Level New York Center
01:55PM 39.6947 -77.4544 360° North 236 272 19,000  Level New York Center
01:56PM 39.7719 -77.4536 360° North 236 272 19,000  Level New York Center
01:57PM 39.8303 -77.4536 360° North 236 272 19,000  Level New York Center
01:58PM 39.9078 -77.4503 North 236 272 19,000  Level New York Center
01:59PM 39.9681 -77.4533 358° North 241 277 19,000  Level New York Center
02:00PM 40.0456 -77.4472 North 241 277 19,000  Level New York Center
02:01PM 40.1039 -77.4472 360° North 241 277 19,000  Level New York Center
02:02PM 40.1800 -77.4275 11° North 236 272 19,000  Level New York Center
02:03PM 40.2406 -77.3897 25° Northeast 255 293 19,000  Level New York Center
02:04PM 40.3161 -77.3425 25° Northeast 266 306 19,000  Level New York Center
02:05PM 40.3744 -77.3044 26° Northeast 266 306 19,000  Level New York Center
02:06PM 40.4506 -77.2517 28° Northeast 271 312 19,000  Level New York Center
02:07PM 40.5089 -77.2108 28° Northeast 271 312 19,000  Level New York Center
02:08PM 40.5806 -77.1600 28° Northeast 271 312 19,000  Level New York Center
02:09PM 40.6389 -77.1189 28° Northeast 271 312 19,000  Level New York Center
02:10PM 40.7039 -77.0731 28° Northeast 271 312 19,000  Level New York Center
02:11PM 40.7689 -77.0269 28° Northeast 266 306 19,000  Level New York Center
02:12PM 40.8383 -76.9783 28° Northeast 266 306 19,000  Level New York Center
02:13PM 40.8986 -76.9397 26° Northeast 266 306 19,000 -180 Level New York Center
02:14PM 40.9617 -76.8906 30° Northeast 261 300 18,700 -540 Descending New York Center
02:15PM 41.0286 -76.8444 27° Northeast 261 300 18,000 -360 Descending New York Center
02:16PM 41.0914 -76.7975 29° Northeast 261 300 18,000  Level New York Center
02:17PM 41.1561 -76.7539 27° Northeast 261 300 18,000 -240 Level New York Center
02:18PM 41.2208 -76.7069 29° Northeast 261 300 17,600 -960 Descending New York Center
02:19PM 41.2925 -76.6497 31° Northeast 261 300 16,100 -1,200 Descending New York Center
02:20PM 41.3531 -76.6081 27° Northeast 261 300 15,200 -600 Descending New York Center
02:21PM 41.4197 -76.5614 28° Northeast 268 308 15,000 -120 Descending New York Center
02:22PM 41.4889 -76.5092 29° Northeast 268 308 15,000  Level New York Center
02:23PM 41.5514 -76.4675 27° Northeast 258 297 15,000 -540 Level New York Center
02:24PM 41.6161 -76.4203 29° Northeast 258 297 14,000 -1,020 Descending New York Center
02:25PM 41.6744 -76.3750 30° Northeast 263 303 13,000 -960 Descending New York Center
02:26PM 41.7414 -76.3250 29° Northeast 271 312 12,100 -960 Descending New York Center
02:27PM 41.8075 -76.2472 41° Northeast 282 325 11,100 -1,200 Descending New York Center
02:28PM 41.8569 -76.1706 49° Northeast 282 325 9,800 -1,800 Descending New York Center
02:29PM 41.8881 -76.0756 66° East 269 310 7,600 -2,040 Descending New York Center
02:30PM 41.9189 -75.9944 63° Northeast 269 310 5,800 -1,260 Descending New York Center
02:31PM 41.9539 -75.9050 62° Northeast 269 310 5,100 -360 Descending New York Center
02:32PM 41.9928 -75.8272 56° Northeast 244 281 5,100  Level New York Center
02:33PM 42.0400 -75.8419 347° North 172 198 5,100 -60 Level New York Center
02:34PM 42.0722 -75.8667 330° Northwest 132 152 5,000 -420 Descending New York Center
02:35PM 42.1003 -75.8914 327° Northwest 127 146 4,300 -780 Descending New York Center
02:36PM 42.1283 -75.9131 330° Northwest 122 140 3,500 -780 Descending New York Center
02:37PM 42.1567 -75.9375 327° Northwest 122 140 2,800 -720 Descending New York Center
02:39PM 42.2000 -75.9667 334° Northwest  Level FlightAware Approximate
02:46PM 42.2084 -75.9796 334° Northwest  Level Estimated
02:47PM 42.2084 -75.9796 334° Northwest  Level Estimated
02:48PM 42.2084 -75.9796 334° Northwest  Level Estimated
02:49PM 42.2084 -75.9796 334° Northwest  Level Estimated
02:50PM 42.2084 -75.9796 334° Northwest  Level Estimated